Aérodrome :
LOGIN :

S'inscrire | Disclaimer

   EN    FR    IT 

 










Légende :    VFR   VFR Marginal   IFR   IFR Intensif   IFR Très Intensif
Visi : 
Plafond : 
>= 8 km
>= 3000ft
5 à 8 km
1000 à 3000 ft
1500m à 5 km
500 à 1000 ft
800 à 1500m
200 à 500 ft
< 800m
< 200 ft
Symboles :   Orages  Brouillard  Fortes neiges  Fortes précipitations  Vent > 20 kt
SIGMETs :   Divers  Orages  Givrage  Turbulence  Onde Orograph.  Cendres Volcan.







- Altitude de l'aérodrome : 1487 ft
- Code IATA : MUC


EDDM - München Franz Josef Strauss

DERNIER METAR :
  • 261720Z VRB02KT 9999 -RA FEW007 BKN013 OVC022 04/03 Q1011 NOSIG

METARs EXPIRÉS :
  • 261650Z 29002KT 9999 -RA FEW005 BKN012 OVC022 04/02 Q1011 NOSIG
  • 261620Z 30003KT 9999 -RA FEW007 BKN012 04/02 Q1011 NOSIG
  • 261550Z 29004KT 250V310 9999 -RA FEW007 BKN012 BKN020 04/03 Q1011 NOSIG
  • 261520Z 28003KT 250V310 9999 -RA FEW007 BKN011 04/02 Q1010 NOSIG
  • 261450Z 26003KT 9999 -RA FEW007 BKN011 04/02 Q1010 NOSIG

TAF TAF EDDM
Valide du 26 à 18h jusqu'au 28 à 00h UTC


261732Z 2618/2724 32005KT 9999 FEW007 BKN012
BECMG 2620/2622 VRB03KT BKN007
TEMPO 2622/2708 4000 SNRA BKN004
BECMG 2704/2706 04005KT
BECMG 2708/2710 BKN012
TEMPO 2710/2724 RA BKN007
Pas de NOTAMs connus pour ce terrain.



MET'MAP, la Météo Aéronautique d'un coup d'oeil ! - Copyright ORBIFLY Décembre 2007 - Disclaimer

ORBIFLY MET'MAP TEAM :

Programmation & Développement : Alexandra Zaïnal
Conception & Développement : Baudouin d'Aumeries
Co-Programmation & Développement : Marc-Olivier Méhu
Soutien technique & logistique : Manuel Goepfert

Contact : metmap@orbifly.com




SOURCES & CREDITS :

   NOAA